createdAt,value
2023-02-17T00:00:50.947Z,23.70
2023-02-17T00:03:57.102Z,25.00
2023-02-17T00:07:00.049Z,22.10
2023-02-17T00:10:04.280Z,19.60
2023-02-17T00:13:07.950Z,22.80
2023-02-17T00:16:18.789Z,21.90
2023-02-17T00:19:25.593Z,22.40
2023-02-17T00:22:30.064Z,23.30
2023-02-17T00:25:34.107Z,22.40
2023-02-17T00:28:37.178Z,23.50
2023-02-17T00:31:44.340Z,25.60
2023-02-17T00:34:47.940Z,24.30
2023-02-17T00:37:55.027Z,24.40
2023-02-17T00:41:00.153Z,26.50
2023-02-17T00:44:04.043Z,22.20
2023-02-17T00:47:07.972Z,18.90
2023-02-17T00:50:14.374Z,24.50
2023-02-17T00:53:17.474Z,26.40
2023-02-17T00:56:23.319Z,24.10
2023-02-17T00:59:29.485Z,27.40
2023-02-17T01:02:32.188Z,31.50
2023-02-17T01:05:42.333Z,28.80
2023-02-17T01:08:44.715Z,34.00
2023-02-17T01:11:53.891Z,23.20
2023-02-17T01:15:00.909Z,31.30
2023-02-17T01:18:06.369Z,26.20
2023-02-17T01:21:22.677Z,26.30
2023-02-17T01:24:26.646Z,27.10
2023-02-17T01:27:32.057Z,27.50
2023-02-17T01:30:35.369Z,29.80
2023-02-17T01:33:41.842Z,31.60
2023-02-17T01:36:44.739Z,26.10
2023-02-17T01:39:49.217Z,24.30
2023-02-17T01:42:56.384Z,23.50
2023-02-17T01:46:01.672Z,30.80
2023-02-17T01:49:31.140Z,47.20
2023-02-17T01:52:40.157Z,65.20
2023-02-17T01:55:43.034Z,42.20
2023-02-17T01:58:59.327Z,71.20
2023-02-17T02:02:06.012Z,81.00
2023-02-17T02:05:12.029Z,91.80
2023-02-17T02:08:16.210Z,76.60
2023-02-17T02:11:20.027Z,59.70
2023-02-17T02:14:26.134Z,65.40
2023-02-17T02:17:51.146Z,69.90
2023-02-17T02:21:06.300Z,57.60
2023-02-17T02:24:44.312Z,50.10
2023-02-17T02:28:09.595Z,42.70
2023-02-17T02:31:29.545Z,31.20
2023-02-17T02:34:57.798Z,30.30
2023-02-17T02:38:06.993Z,24.70
2023-02-17T02:41:26.892Z,29.10
2023-02-17T02:44:32.170Z,24.80
2023-02-17T02:47:58.116Z,28.00
2023-02-17T02:51:13.882Z,28.00
2023-02-17T02:54:41.459Z,30.70
2023-02-17T02:58:03.061Z,26.20
2023-02-17T03:01:34.546Z,54.90
2023-02-17T03:04:45.858Z,117.20
2023-02-17T03:07:58.744Z,77.50
2023-02-17T03:11:09.188Z,70.40
2023-02-17T03:14:17.521Z,56.40
2023-02-17T03:22:52.688Z,49.70
2023-02-17T03:25:57.338Z,52.50
2023-02-17T03:29:00.490Z,69.70
2023-02-17T03:32:07.809Z,61.70
2023-02-17T03:35:12.497Z,65.60
2023-02-17T03:38:14.995Z,65.00
2023-02-17T03:41:22.082Z,63.00
2023-02-17T03:44:32.623Z,51.70
2023-02-17T03:47:40.247Z,51.30
2023-02-17T03:50:46.371Z,33.70
2023-02-17T03:53:49.713Z,38.70
2023-02-17T03:56:54.643Z,34.70
2023-02-17T03:59:59.629Z,30.30
2023-02-17T04:03:02.726Z,33.20
2023-02-17T04:06:08.711Z,29.20
2023-02-17T04:09:13.336Z,31.10
2023-02-17T04:12:16.317Z,34.60
2023-02-17T04:15:19.949Z,32.60
2023-02-17T04:18:31.841Z,30.60
2023-02-17T04:21:34.674Z,30.70
2023-02-17T04:24:41.372Z,32.40
2023-02-17T04:27:54.320Z,37.20
2023-02-17T04:31:00.059Z,29.50
2023-02-17T04:34:03.640Z,37.70
2023-02-17T04:37:06.566Z,35.40
2023-02-17T04:40:10.682Z,32.30
2023-02-17T04:43:14.191Z,33.10
2023-02-17T04:46:16.281Z,32.20
2023-02-17T04:49:20.698Z,35.50
2023-02-17T04:52:22.962Z,35.30
2023-02-17T04:55:29.484Z,36.00
2023-02-17T04:58:40.490Z,32.60
2023-02-17T05:01:45.986Z,36.80
2023-02-17T05:04:57.460Z,38.70
2023-02-17T05:08:01.887Z,37.00
2023-02-17T05:11:11.393Z,42.20
2023-02-17T05:14:18.680Z,35.00
2023-02-17T05:17:27.640Z,36.70
2023-02-17T05:20:37.958Z,39.60
2023-02-17T05:23:40.979Z,46.20
2023-02-17T05:26:46.627Z,40.10
2023-02-17T05:29:52.261Z,38.40
2023-02-17T05:32:58.104Z,36.30
2023-02-17T05:36:13.717Z,43.30
2023-02-17T05:39:28.401Z,41.80
2023-02-17T05:42:33.721Z,41.20
2023-02-17T05:45:38.581Z,45.30
2023-02-17T05:48:48.107Z,39.70
2023-02-17T05:51:55.669Z,45.10
2023-02-17T05:55:05.779Z,47.70
2023-02-17T05:58:12.653Z,41.40
2023-02-17T06:01:19.637Z,38.20
2023-02-17T06:04:23.401Z,35.30
2023-02-17T06:07:28.226Z,45.40
2023-02-17T06:10:41.904Z,47.00
2023-02-17T06:13:45.698Z,43.50
2023-02-17T06:16:56.490Z,42.10
2023-02-17T06:20:05.726Z,44.50
2023-02-17T06:23:11.003Z,40.80
2023-02-17T06:26:18.371Z,42.00
2023-02-17T06:29:43.167Z,47.90
2023-02-17T06:32:54.645Z,46.90
2023-02-17T06:36:05.541Z,45.90
2023-02-17T06:39:13.384Z,42.60
2023-02-17T06:45:36.004Z,46.00
2023-02-17T06:48:45.544Z,42.90
2023-02-17T06:51:49.255Z,45.30
2023-02-17T06:54:52.792Z,49.30
2023-02-17T06:57:58.562Z,52.90
2023-02-17T07:01:12.058Z,54.70
2023-02-17T07:04:20.861Z,53.90
2023-02-17T07:07:29.890Z,50.50
2023-02-17T07:10:45.229Z,46.90
2023-02-17T07:13:56.525Z,52.80
2023-02-17T07:17:04.595Z,52.20
2023-02-17T07:20:13.047Z,47.40
2023-02-17T07:23:20.470Z,44.90
2023-02-17T07:26:25.547Z,44.50
2023-02-17T07:29:37.507Z,47.90
2023-02-17T07:32:43.984Z,43.60
2023-02-17T07:36:00.840Z,49.30
2023-02-17T07:39:13.020Z,45.20
2023-02-17T07:42:16.213Z,47.80
2023-02-17T07:45:26.146Z,47.30
2023-02-17T07:48:29.902Z,44.20
2023-02-17T07:51:39.144Z,42.00
2023-02-17T07:54:42.759Z,47.00
2023-02-17T07:57:46.519Z,44.60
2023-02-17T08:00:54.743Z,49.70
2023-02-17T08:04:02.728Z,57.20
2023-02-17T08:07:08.413Z,49.30
2023-02-17T08:10:33.956Z,44.30
2023-02-17T08:13:39.316Z,43.40
2023-02-17T08:16:48.358Z,46.30
2023-02-17T08:19:52.169Z,47.20
2023-02-17T08:22:57.546Z,47.90
2023-02-17T08:26:12.737Z,52.20
2023-02-17T08:29:24.318Z,49.70
2023-02-17T08:32:31.355Z,47.70
2023-02-17T08:35:43.809Z,49.30
2023-02-17T08:38:51.323Z,51.20
2023-02-17T08:41:56.724Z,49.10
2023-02-17T08:48:12.157Z,46.40
2023-02-17T08:51:25.444Z,58.10
2023-02-17T08:54:31.007Z,54.50
2023-02-17T08:57:35.247Z,50.70
2023-02-17T09:00:39.728Z,51.70
2023-02-17T09:03:45.128Z,45.00
2023-02-17T09:06:58.507Z,49.10
2023-02-17T09:10:04.337Z,49.40
2023-02-17T09:13:14.062Z,46.60
2023-02-17T09:16:20.464Z,46.60
2023-02-17T09:19:29.716Z,40.10
2023-02-17T09:22:34.234Z,43.60
2023-02-17T09:25:37.343Z,45.50
2023-02-17T09:28:42.888Z,45.70
2023-02-17T09:31:51.039Z,45.50
2023-02-17T09:34:55.818Z,48.70
2023-02-17T09:37:58.899Z,43.50
2023-02-17T09:41:37.493Z,49.60
2023-02-17T09:44:50.514Z,50.30
2023-02-17T09:48:03.136Z,42.50
2023-02-17T09:51:35.454Z,40.80
2023-02-17T09:54:53.338Z,44.70
2023-02-17T09:58:23.173Z,47.30
2023-02-17T10:01:34.305Z,43.30
2023-02-17T10:04:43.357Z,41.30
2023-02-17T10:08:12.363Z,50.40
2023-02-17T10:11:56.828Z,48.00
2023-02-17T10:15:12.463Z,43.50
2023-02-17T10:18:49.388Z,47.60
2023-02-17T10:22:14.537Z,45.60
2023-02-17T10:25:40.688Z,46.30
2023-02-17T10:28:56.915Z,42.90
2023-02-17T12:16:28.727Z,48.30
2023-02-17T12:20:07.925Z,42.80
2023-02-17T12:23:44.518Z,41.40
2023-02-17T12:27:32.504Z,38.60
2023-02-17T12:35:04.506Z,42.90
2023-02-17T12:38:21.745Z,42.40
2023-02-17T12:41:59.427Z,43.60
2023-02-17T12:45:11.210Z,45.80
2023-02-17T12:48:31.586Z,43.20
2023-02-17T12:51:51.801Z,40.50
2023-02-17T12:55:03.549Z,44.40
2023-02-17T12:58:22.351Z,41.80
2023-02-17T13:01:32.386Z,47.40
2023-02-17T13:04:41.385Z,48.10
2023-02-17T13:07:51.840Z,48.50
2023-02-17T13:11:11.615Z,45.90
2023-02-17T13:14:52.392Z,47.60
2023-02-17T13:18:23.456Z,50.70
2023-02-17T13:21:35.364Z,55.50
2023-02-17T13:24:53.367Z,50.30
2023-02-17T13:28:01.900Z,49.30
2023-02-17T13:31:30.592Z,53.20
2023-02-17T13:34:41.989Z,58.90
2023-02-17T13:37:48.473Z,55.60
2023-02-17T13:41:00.545Z,53.90
2023-02-17T13:44:39.755Z,55.10
2023-02-17T13:47:49.078Z,53.10
2023-02-17T13:50:56.424Z,59.30
2023-02-17T13:54:14.925Z,53.70
2023-02-17T13:57:34.301Z,58.10
2023-02-17T14:00:42.528Z,54.30
2023-02-17T14:03:54.819Z,65.90
2023-02-17T14:07:04.156Z,54.80
2023-02-17T14:10:22.193Z,58.30
2023-02-17T14:13:29.842Z,54.80
2023-02-17T14:16:39.456Z,60.60
2023-02-17T14:25:33.151Z,60.20
2023-02-17T14:29:39.641Z,56.80
2023-02-17T14:33:29.235Z,49.30
2023-02-17T14:36:43.715Z,55.60
2023-02-17T14:44:16.110Z,54.40
2023-02-17T14:48:00.981Z,45.20
2023-02-17T14:51:22.447Z,42.60
2023-02-17T14:55:14.839Z,42.10
2023-02-17T14:58:24.586Z,41.30
2023-02-17T15:01:31.530Z,44.20
2023-02-17T15:04:41.791Z,45.70
2023-02-17T15:07:50.283Z,43.80
2023-02-17T15:10:57.146Z,38.00
2023-02-17T15:14:06.536Z,39.10
2023-02-17T15:17:11.651Z,48.10
2023-02-17T15:20:17.244Z,36.60
2023-02-17T15:23:26.410Z,37.60
2023-02-17T15:26:32.805Z,37.60
2023-02-17T15:29:36.980Z,31.10
2023-02-17T15:32:41.646Z,35.10
2023-02-17T15:35:52.934Z,34.50
2023-02-17T15:38:58.589Z,32.90
2023-02-17T15:42:08.692Z,33.40
2023-02-17T15:45:19.819Z,31.20
2023-02-17T15:48:26.092Z,34.00
2023-02-17T15:51:28.950Z,31.10
2023-02-17T15:54:51.220Z,27.90
2023-02-17T15:58:11.024Z,28.10
2023-02-17T16:01:28.219Z,26.70
2023-02-17T16:04:32.019Z,23.70
2023-02-17T16:07:38.590Z,30.90
2023-02-17T16:10:46.817Z,27.10
2023-02-17T16:13:54.710Z,25.40
2023-02-17T16:16:58.163Z,23.60
2023-02-17T16:32:08.129Z,28.90
2023-02-17T16:35:32.033Z,29.00
2023-02-17T16:38:35.121Z,32.90
2023-02-17T16:41:41.858Z,35.20
2023-02-17T16:44:53.997Z,33.50
2023-02-17T16:48:00.074Z,31.10
2023-02-17T16:51:03.049Z,34.60
2023-02-17T16:54:06.838Z,38.30
2023-02-17T16:57:19.981Z,36.60
2023-02-17T17:00:28.355Z,33.50
2023-02-17T17:03:37.090Z,31.50
2023-02-17T17:06:46.479Z,31.00
2023-02-17T17:10:15.126Z,33.00
2023-02-17T17:13:17.487Z,36.80
2023-02-17T17:16:34.585Z,35.80
2023-02-17T17:19:45.026Z,33.50
2023-02-17T17:22:52.009Z,38.40
2023-02-17T17:26:03.451Z,33.30
2023-02-17T17:29:13.252Z,39.00
2023-02-17T17:32:18.222Z,33.70
2023-02-17T17:35:24.786Z,31.90
2023-02-17T17:38:38.280Z,28.30
2023-02-17T17:41:44.438Z,30.70
2023-02-17T17:44:50.400Z,31.70
2023-02-17T17:47:56.274Z,29.80
2023-02-17T17:51:01.202Z,29.60
2023-02-17T17:54:06.952Z,32.00
2023-02-17T17:57:17.024Z,34.30
2023-02-17T18:00:21.807Z,31.10
2023-02-17T18:03:28.018Z,33.40
2023-02-17T18:07:06.161Z,35.10
2023-02-17T18:10:15.228Z,28.80
2023-02-17T18:13:25.740Z,33.10
2023-02-17T18:16:32.522Z,34.90
2023-02-17T18:19:45.422Z,31.20
2023-02-17T18:22:53.388Z,33.90
2023-02-17T18:26:04.928Z,32.60
2023-02-17T18:29:17.934Z,30.00
2023-02-17T18:32:24.385Z,34.80
2023-02-17T18:35:34.053Z,32.40
2023-02-17T18:39:11.022Z,37.80
2023-02-17T18:42:17.904Z,28.70
2023-02-17T18:45:29.815Z,32.20
2023-02-17T18:48:43.316Z,32.40
2023-02-17T18:52:27.509Z,31.60
2023-02-17T18:55:35.790Z,32.10
2023-02-17T18:58:46.546Z,36.40
2023-02-17T19:01:51.626Z,29.70
2023-02-17T19:04:57.274Z,29.50
2023-02-17T19:08:08.300Z,31.10
2023-02-17T19:11:16.500Z,29.70
2023-02-17T19:14:23.694Z,32.10
2023-02-17T19:17:29.993Z,32.20
2023-02-17T19:20:43.021Z,30.80
2023-02-17T19:23:57.764Z,34.70
2023-02-17T19:27:14.082Z,32.10
2023-02-17T19:30:30.484Z,34.90
2023-02-17T19:34:25.002Z,29.10
2023-02-17T19:37:33.578Z,34.30
2023-02-17T19:40:55.544Z,31.90
2023-02-17T19:44:01.322Z,28.00
2023-02-17T19:47:08.895Z,26.70
2023-02-17T19:50:17.791Z,28.20
2023-02-17T19:53:43.385Z,30.90
2023-02-17T19:57:04.738Z,28.90
2023-02-17T20:00:14.238Z,25.00
2023-02-17T20:03:26.328Z,30.30
2023-02-17T20:10:05.787Z,31.20
2023-02-17T20:13:17.278Z,25.10
2023-02-17T20:16:26.504Z,25.70
2023-02-17T20:19:32.826Z,31.30
2023-02-17T20:22:39.362Z,24.90
2023-02-17T20:25:44.253Z,31.30
2023-02-17T20:28:50.661Z,32.90
2023-02-17T20:32:01.862Z,32.10
2023-02-17T20:35:08.186Z,30.80
2023-02-17T20:38:19.531Z,32.30
2023-02-17T20:41:32.451Z,31.70
2023-02-17T20:44:35.949Z,32.90
2023-02-17T20:47:39.704Z,36.80
2023-02-17T20:50:45.333Z,30.60
2023-02-17T20:53:52.791Z,32.00
2023-02-17T20:57:01.703Z,31.70
2023-02-17T21:00:16.144Z,27.40
2023-02-17T21:03:19.578Z,30.60
2023-02-17T21:06:38.954Z,29.50
2023-02-17T21:09:46.797Z,32.50
2023-02-17T21:12:53.248Z,31.10
2023-02-17T21:19:07.305Z,37.40
2023-02-17T21:22:15.947Z,38.40
2023-02-17T21:25:19.870Z,36.70
2023-02-17T21:28:25.806Z,33.00
2023-02-17T21:31:33.065Z,34.20
2023-02-17T21:37:43.443Z,38.00
2023-02-17T21:40:48.068Z,38.90
2023-02-17T21:44:11.722Z,42.10
2023-02-17T21:50:03.870Z,49.40
2023-02-17T21:53:07.782Z,52.70
2023-02-17T21:56:13.735Z,55.30
2023-02-17T21:59:18.781Z,51.90
2023-02-17T22:02:31.884Z,54.50
2023-02-17T22:05:36.722Z,50.30
2023-02-17T22:08:46.392Z,56.50
2023-02-17T22:11:56.274Z,55.10
2023-02-17T22:15:05.096Z,55.80
2023-02-17T22:18:55.883Z,54.30
2023-02-17T22:22:02.492Z,58.40
2023-02-17T22:25:08.121Z,57.80
2023-02-17T22:28:13.487Z,57.30
2023-02-17T22:31:26.693Z,55.00
2023-02-17T22:34:39.852Z,55.30
2023-02-17T22:37:43.418Z,58.90
2023-02-17T22:40:48.220Z,59.90
2023-02-17T22:43:54.295Z,59.50
2023-02-17T22:47:02.696Z,61.00
2023-02-17T22:50:14.615Z,62.30
2023-02-17T22:53:25.975Z,57.50
2023-02-17T22:56:31.255Z,60.20
2023-02-17T22:59:34.523Z,64.70
2023-02-17T23:02:42.381Z,62.30
2023-02-17T23:05:46.747Z,58.80
2023-02-17T23:08:52.399Z,65.50
2023-02-17T23:11:58.077Z,64.10
2023-02-17T23:15:10.706Z,62.90
2023-02-17T23:18:18.172Z,61.10
2023-02-17T23:21:28.751Z,59.00
2023-02-17T23:24:43.034Z,62.40
2023-02-17T23:27:47.726Z,65.90
2023-02-17T23:30:52.916Z,60.20
2023-02-17T23:34:01.326Z,58.40
2023-02-17T23:37:06.835Z,56.40
2023-02-17T23:40:13.250Z,63.10
2023-02-17T23:43:21.936Z,62.10
2023-02-17T23:46:31.391Z,61.60
2023-02-17T23:50:03.868Z,58.00
2023-02-17T23:53:42.973Z,63.20
2023-02-17T23:57:15.104Z,63.10
